createdAt,value
2019-03-31T00:01:50.856Z,28.67
2019-03-31T00:04:21.646Z,25.90
2019-03-31T00:06:52.516Z,23.52
2019-03-31T00:09:23.403Z,28.45
2019-03-31T00:11:54.141Z,27.10
2019-03-31T00:14:29.179Z,31.30
2019-03-31T00:16:59.821Z,27.65
2019-03-31T00:19:34.963Z,40.12
2019-03-31T00:22:05.764Z,29.10
2019-03-31T00:24:36.439Z,27.02
2019-03-31T00:27:07.281Z,28.47
2019-03-31T00:29:38.062Z,23.42
2019-03-31T00:32:09.942Z,27.80
2019-03-31T00:34:41.951Z,24.35
2019-03-31T00:37:16.296Z,25.60
2019-03-31T00:39:46.932Z,25.57
2019-03-31T00:42:17.665Z,28.00
2019-03-31T00:44:48.315Z,21.57
2019-03-31T00:47:18.972Z,26.50
2019-03-31T00:49:49.680Z,24.12
2019-03-31T00:52:20.282Z,21.73
2019-03-31T00:54:50.927Z,23.20
2019-03-31T00:57:21.539Z,24.18
2019-03-31T00:59:52.181Z,28.50
2019-03-31T01:02:26.411Z,30.02
2019-03-31T01:04:57.529Z,28.32
2019-03-31T01:07:28.448Z,26.10
2019-03-31T01:09:59.445Z,26.15
2019-03-31T01:12:30.266Z,28.10
2019-03-31T01:15:01.477Z,20.23
2019-03-31T01:17:32.856Z,25.57
2019-03-31T01:20:03.980Z,21.62
2019-03-31T01:22:34.853Z,21.33
2019-03-31T01:25:07.061Z,24.43
2019-03-31T01:27:37.824Z,25.75
2019-03-31T01:30:10.293Z,25.52
2019-03-31T01:32:41.063Z,25.90
2019-03-31T01:35:13.927Z,26.82
2019-03-31T01:37:44.883Z,28.07
2019-03-31T01:40:15.771Z,19.87
2019-03-31T01:42:46.521Z,22.75
2019-03-31T01:45:18.157Z,29.57
2019-03-31T01:47:48.932Z,29.52
2019-03-31T01:50:20.576Z,28.65
2019-03-31T01:52:51.347Z,24.10
2019-03-31T01:55:22.940Z,26.45
2019-03-31T01:57:53.738Z,24.15
2019-03-31T02:00:35.649Z,27.27
2019-03-31T02:03:08.599Z,24.43
2019-03-31T02:05:39.676Z,23.12
2019-03-31T02:08:10.695Z,27.40
2019-03-31T02:10:41.783Z,23.27
2019-03-31T02:13:13.324Z,22.82
2019-03-31T02:15:44.260Z,24.95
2019-03-31T02:18:16.653Z,28.98
2019-03-31T02:20:47.392Z,24.02
2019-03-31T02:23:18.348Z,34.03
2019-03-31T02:25:49.086Z,23.92
2019-03-31T02:28:19.989Z,21.80
2019-03-31T02:30:50.746Z,27.82
2019-03-31T02:33:21.506Z,23.32
2019-03-31T02:35:52.273Z,25.60
2019-03-31T02:38:23.016Z,23.90
2019-03-31T02:40:53.914Z,20.95
2019-03-31T02:43:24.771Z,24.82
2019-03-31T02:45:55.657Z,23.45
2019-03-31T02:48:26.444Z,22.17
2019-03-31T02:50:57.350Z,23.47
2019-03-31T02:53:28.260Z,27.20
2019-03-31T02:55:59.310Z,30.10
2019-03-31T02:58:30.680Z,28.47
2019-03-31T03:01:01.990Z,28.98
2019-03-31T03:03:35.899Z,23.73
2019-03-31T03:06:08.964Z,29.90
2019-03-31T03:08:43.149Z,21.12
2019-03-31T03:11:17.407Z,24.65
2019-03-31T03:13:49.794Z,30.27
2019-03-31T03:16:22.246Z,26.20
2019-03-31T03:18:53.104Z,27.90
2019-03-31T03:21:25.055Z,25.08
2019-03-31T03:23:56.087Z,30.25
2019-03-31T03:26:26.963Z,20.72
2019-03-31T03:28:57.746Z,25.97
2019-03-31T03:31:28.916Z,25.25
2019-03-31T03:33:59.597Z,24.32
2019-03-31T03:36:30.516Z,30.77
2019-03-31T03:39:01.525Z,28.83
2019-03-31T03:41:32.550Z,26.80
2019-03-31T03:44:03.425Z,26.45
2019-03-31T03:46:34.214Z,21.20
2019-03-31T03:49:05.335Z,19.87
2019-03-31T03:51:36.340Z,25.45
2019-03-31T03:54:07.230Z,24.72
2019-03-31T03:56:38.096Z,27.27
2019-03-31T03:59:09.672Z,27.75
2019-03-31T04:01:43.776Z,25.72
2019-03-31T04:04:14.595Z,31.65
2019-03-31T04:06:45.476Z,24.70
2019-03-31T04:09:16.448Z,22.75
2019-03-31T04:11:47.400Z,27.20
2019-03-31T04:14:18.502Z,28.75
2019-03-31T04:16:49.481Z,27.15
2019-03-31T04:19:20.838Z,27.90
2019-03-31T04:21:51.598Z,31.00
2019-03-31T04:24:22.722Z,20.97
2019-03-31T04:26:53.519Z,28.50
2019-03-31T04:29:25.155Z,36.28
2019-03-31T04:31:56.387Z,33.83
2019-03-31T04:34:27.114Z,34.83
2019-03-31T04:36:57.837Z,34.60
2019-03-31T04:39:28.821Z,28.35
2019-03-31T04:41:59.703Z,28.45
2019-03-31T04:44:30.825Z,27.55
2019-03-31T04:47:01.617Z,40.23
2019-03-31T04:49:32.347Z,24.20
2019-03-31T04:52:03.082Z,27.58
2019-03-31T04:54:33.913Z,31.60
2019-03-31T04:57:04.807Z,28.10
2019-03-31T04:59:35.587Z,28.25
2019-03-31T05:02:06.379Z,24.32
2019-03-31T05:04:37.154Z,34.27
2019-03-31T05:07:07.821Z,27.67
2019-03-31T05:09:38.639Z,29.85
2019-03-31T05:12:09.374Z,26.45
2019-03-31T05:14:40.117Z,29.45
2019-03-31T05:17:11.017Z,28.70
2019-03-31T05:19:41.846Z,26.23
2019-03-31T05:22:12.611Z,26.40
2019-03-31T05:24:43.559Z,26.55
2019-03-31T05:27:14.330Z,32.05
2019-03-31T05:29:45.040Z,32.85
2019-03-31T05:32:16.037Z,30.05
2019-03-31T05:34:46.714Z,24.67
2019-03-31T05:37:17.466Z,30.62
2019-03-31T05:39:48.360Z,22.30
2019-03-31T05:42:19.255Z,27.48
2019-03-31T05:44:49.960Z,23.77
2019-03-31T05:47:20.909Z,28.38
2019-03-31T05:49:51.702Z,25.90
2019-03-31T05:52:22.743Z,28.75
2019-03-31T05:54:53.519Z,26.95
2019-03-31T05:57:24.311Z,30.30
2019-03-31T05:59:55.353Z,33.42
2019-03-31T06:02:26.771Z,29.90
2019-03-31T06:04:57.687Z,34.18
2019-03-31T06:07:28.709Z,28.15
2019-03-31T06:09:59.576Z,31.40
2019-03-31T06:12:32.944Z,29.15
2019-03-31T06:15:04.235Z,27.95
2019-03-31T06:17:35.173Z,25.10
2019-03-31T06:20:06.191Z,34.33
2019-03-31T06:22:37.176Z,27.30
2019-03-31T06:25:08.045Z,30.25
2019-03-31T06:27:38.940Z,28.50
2019-03-31T06:30:10.048Z,38.45
2019-03-31T06:32:41.055Z,34.03
2019-03-31T06:35:12.318Z,27.13
2019-03-31T06:37:43.274Z,31.73
2019-03-31T06:40:17.684Z,34.85
2019-03-31T06:42:48.704Z,31.27
2019-03-31T06:45:20.647Z,30.60
2019-03-31T06:47:51.788Z,27.73
2019-03-31T06:50:22.770Z,32.42
2019-03-31T06:52:53.688Z,26.30
2019-03-31T06:55:24.672Z,31.50
2019-03-31T06:57:58.381Z,30.77
2019-03-31T07:00:29.726Z,29.65
2019-03-31T07:03:00.592Z,27.40
2019-03-31T07:05:31.317Z,28.95
2019-03-31T07:08:03.367Z,34.15
2019-03-31T07:10:40.600Z,38.28
2019-03-31T07:13:12.731Z,31.87
2019-03-31T07:15:44.958Z,38.85
2019-03-31T07:18:16.385Z,34.65
2019-03-31T07:20:47.190Z,44.18
2019-03-31T07:23:18.007Z,37.48
2019-03-31T07:25:48.741Z,35.83
2019-03-31T07:28:19.511Z,38.17
2019-03-31T07:30:50.588Z,34.55
2019-03-31T07:33:21.408Z,35.63
2019-03-31T07:35:52.082Z,41.30
2019-03-31T07:38:23.059Z,33.80
2019-03-31T07:40:54.393Z,35.35
2019-03-31T07:43:25.411Z,37.25
2019-03-31T07:45:56.508Z,42.45
2019-03-31T07:48:28.170Z,37.65
2019-03-31T07:50:59.071Z,44.90
2019-03-31T07:53:30.407Z,54.13
2019-03-31T07:56:01.106Z,33.85
2019-03-31T07:58:31.873Z,38.70
2019-03-31T08:01:02.560Z,39.18
2019-03-31T08:03:33.789Z,33.30
2019-03-31T08:06:05.150Z,32.90
2019-03-31T08:08:36.072Z,37.42
2019-03-31T08:11:06.919Z,33.33
2019-03-31T08:13:37.686Z,38.78
2019-03-31T08:16:08.506Z,31.77
2019-03-31T08:18:39.155Z,39.13
2019-03-31T08:21:09.884Z,33.95
2019-03-31T08:23:41.839Z,35.13
2019-03-31T08:26:12.682Z,36.38
2019-03-31T08:28:43.398Z,37.15
2019-03-31T08:31:14.113Z,32.33
2019-03-31T08:33:45.068Z,35.48
2019-03-31T08:36:15.764Z,37.80
2019-03-31T08:38:46.550Z,34.63
2019-03-31T08:41:17.316Z,27.77
2019-03-31T08:43:48.397Z,31.57
2019-03-31T08:46:19.318Z,38.10
2019-03-31T08:48:50.298Z,34.67
2019-03-31T08:51:21.198Z,31.27
2019-03-31T08:53:54.433Z,37.63
2019-03-31T08:56:25.563Z,33.60
2019-03-31T08:58:56.750Z,39.10
2019-03-31T09:01:32.702Z,34.03
2019-03-31T09:04:06.454Z,34.45
2019-03-31T09:06:37.582Z,41.83
2019-03-31T09:09:08.625Z,30.85
2019-03-31T09:11:39.482Z,37.53
2019-03-31T09:14:10.154Z,31.15
2019-03-31T09:16:41.051Z,34.58
2019-03-31T09:19:14.426Z,41.08
2019-03-31T09:21:47.484Z,31.12
2019-03-31T09:24:20.120Z,32.30
2019-03-31T09:26:52.091Z,35.15
2019-03-31T09:29:22.856Z,29.15
2019-03-31T09:31:57.308Z,33.80
2019-03-31T09:34:28.453Z,38.95
2019-03-31T09:36:59.570Z,37.30
2019-03-31T09:39:30.506Z,32.80
2019-03-31T09:42:01.453Z,34.60
2019-03-31T09:44:32.523Z,31.35
2019-03-31T09:47:03.773Z,39.00
2019-03-31T09:49:34.879Z,34.08
2019-03-31T09:52:05.890Z,35.15
2019-03-31T09:54:37.691Z,40.55
2019-03-31T09:57:09.210Z,36.98
2019-03-31T09:59:40.125Z,44.18
2019-03-31T10:02:10.912Z,37.13
2019-03-31T10:04:41.603Z,42.73
2019-03-31T10:07:13.883Z,35.98
2019-03-31T10:09:45.302Z,42.55
2019-03-31T10:12:16.123Z,39.00
2019-03-31T10:14:46.993Z,39.73
2019-03-31T10:17:18.000Z,40.30
2019-03-31T10:19:48.884Z,46.03
2019-03-31T10:22:19.613Z,39.47
2019-03-31T10:24:50.923Z,39.57
2019-03-31T10:27:21.712Z,44.43
2019-03-31T10:29:52.514Z,36.47
2019-03-31T10:32:23.272Z,41.47
2019-03-31T10:34:54.250Z,41.73
2019-03-31T10:37:25.081Z,40.57
2019-03-31T10:39:55.838Z,36.13
2019-03-31T10:42:26.625Z,41.37
2019-03-31T10:44:58.515Z,54.03
2019-03-31T10:47:29.259Z,43.63
2019-03-31T10:50:02.216Z,47.20
2019-03-31T10:52:32.929Z,43.00
2019-03-31T10:56:02.596Z,45.10
2019-03-31T10:58:34.096Z,43.73
2019-03-31T11:01:04.928Z,50.93
2019-03-31T11:03:46.491Z,46.67
2019-03-31T11:06:18.205Z,46.13
2019-03-31T11:08:51.311Z,43.23
2019-03-31T11:11:30.375Z,44.20
2019-03-31T11:14:04.660Z,41.40
2019-03-31T11:16:42.599Z,35.73
2019-03-31T11:19:13.572Z,38.73
2019-03-31T11:22:23.255Z,42.97
2019-03-31T11:24:54.145Z,40.43
2019-03-31T11:27:25.210Z,32.93
2019-03-31T11:29:56.219Z,35.60
2019-03-31T11:32:29.353Z,38.47
2019-03-31T11:35:37.463Z,41.33
2019-03-31T11:38:48.861Z,35.83
2019-03-31T11:41:32.279Z,33.33
2019-03-31T11:45:35.789Z,25.70
2019-03-31T11:48:19.559Z,28.40
2019-03-31T11:51:20.634Z,31.50
2019-03-31T11:53:39.440Z,28.37
2019-03-31T11:56:10.513Z,30.40
2019-03-31T11:58:47.575Z,26.97
2019-03-31T12:02:02.150Z,26.33
2019-03-31T12:04:44.326Z,29.30
2019-03-31T12:07:27.808Z,21.70
2019-03-31T12:10:01.871Z,21.20
2019-03-31T12:12:35.173Z,15.20
2019-03-31T12:15:10.824Z,15.80
2019-03-31T12:17:44.947Z,14.97
2019-03-31T12:20:16.089Z,21.70
2019-03-31T12:22:47.525Z,14.77
2019-03-31T12:25:27.764Z,16.70
2019-03-31T12:27:58.566Z,8.67
2019-03-31T12:30:29.581Z,16.80
2019-03-31T12:33:08.998Z,13.60
2019-03-31T12:35:39.802Z,16.23
2019-03-31T12:38:34.796Z,17.90
2019-03-31T12:41:52.025Z,23.90
2019-03-31T12:44:25.129Z,26.93
2019-03-31T12:47:08.433Z,22.23
2019-03-31T12:49:45.676Z,18.60
2019-03-31T12:52:16.696Z,16.53
2019-03-31T12:58:44.766Z,19.40
2019-03-31T13:02:03.561Z,27.90
2019-03-31T13:04:35.924Z,21.67
2019-03-31T13:07:06.822Z,21.00
2019-03-31T13:09:38.123Z,21.43
2019-03-31T13:12:09.647Z,19.60
2019-03-31T13:14:40.777Z,19.80
2019-03-31T13:17:11.791Z,17.23
2019-03-31T13:19:43.079Z,19.80
2019-03-31T13:22:14.112Z,22.10
2019-03-31T13:24:44.958Z,19.70
2019-03-31T13:27:16.195Z,21.17
2019-03-31T13:29:47.182Z,19.37
2019-03-31T13:32:18.329Z,16.60
2019-03-31T13:34:50.143Z,17.27
2019-03-31T13:37:21.432Z,16.70
2019-03-31T13:39:55.080Z,16.50
2019-03-31T13:42:27.385Z,18.70
2019-03-31T13:45:01.557Z,14.50
2019-03-31T13:47:36.243Z,12.90
2019-03-31T13:50:08.725Z,7.40
2019-03-31T13:52:39.761Z,13.53
2019-03-31T13:55:10.998Z,12.30
2019-03-31T13:57:42.964Z,13.90
2019-03-31T14:00:25.368Z,13.13
2019-03-31T14:02:54.336Z,12.40
2019-03-31T14:05:26.071Z,12.57
2019-03-31T14:07:57.189Z,11.60
2019-03-31T14:10:28.291Z,12.37
2019-03-31T14:12:59.369Z,11.07
2019-03-31T14:15:31.039Z,10.23
2019-03-31T14:18:01.922Z,10.17
2019-03-31T14:20:34.651Z,11.13
2019-03-31T14:23:06.195Z,12.80
2019-03-31T14:25:37.145Z,9.30
2019-03-31T14:28:09.258Z,9.07
2019-03-31T14:30:40.161Z,11.40
2019-03-31T14:33:11.524Z,12.53
2019-03-31T14:35:42.495Z,9.70
2019-03-31T14:38:13.481Z,9.70
2019-03-31T14:40:44.635Z,10.23
2019-03-31T14:43:17.192Z,15.83
2019-03-31T14:45:50.111Z,11.90
2019-03-31T14:48:22.119Z,11.33
2019-03-31T14:50:52.954Z,11.73
2019-03-31T14:53:24.077Z,7.00
2019-03-31T14:55:55.283Z,7.20
2019-03-31T14:58:26.327Z,8.87
2019-03-31T15:00:57.616Z,12.47
2019-03-31T15:03:28.690Z,9.27
2019-03-31T15:06:00.108Z,11.90
2019-03-31T15:08:31.821Z,8.63
2019-03-31T15:11:02.576Z,13.83
2019-03-31T15:13:33.372Z,8.40
2019-03-31T15:16:04.245Z,12.00
2019-03-31T15:18:35.138Z,9.07
2019-03-31T15:21:06.182Z,8.57
2019-03-31T15:23:36.960Z,10.00
2019-03-31T15:26:08.406Z,5.40
2019-03-31T15:28:41.274Z,9.40
2019-03-31T15:31:13.121Z,10.50
2019-03-31T15:33:44.155Z,8.70
2019-03-31T15:36:15.393Z,10.90
2019-03-31T15:38:46.151Z,9.67
2019-03-31T15:41:21.383Z,9.70
2019-03-31T15:43:50.219Z,10.20
2019-03-31T15:46:24.385Z,9.87
2019-03-31T15:48:53.813Z,10.00
2019-03-31T15:51:24.923Z,7.90
2019-03-31T15:53:55.688Z,11.90
2019-03-31T15:56:26.458Z,10.47
2019-03-31T15:58:57.352Z,8.30
2019-03-31T16:01:29.084Z,11.73
2019-03-31T16:04:00.327Z,7.77
2019-03-31T16:06:31.491Z,9.03
2019-03-31T16:09:02.077Z,10.40
2019-03-31T16:11:32.193Z,9.03
2019-03-31T16:14:02.782Z,9.50
2019-03-31T16:16:32.855Z,8.80
2019-03-31T16:19:03.629Z,5.83
2019-03-31T16:21:34.076Z,8.50
2019-03-31T16:24:04.199Z,5.20
2019-03-31T16:26:34.244Z,6.97
2019-03-31T16:29:06.468Z,7.47
2019-03-31T16:31:36.708Z,7.07
2019-03-31T16:34:06.999Z,6.93
2019-03-31T16:36:37.213Z,7.87
2019-03-31T16:39:07.216Z,12.20
2019-03-31T16:41:37.348Z,10.10
2019-03-31T16:44:07.323Z,7.60
2019-03-31T16:46:39.766Z,7.30
2019-03-31T16:49:09.134Z,10.07
2019-03-31T16:51:39.244Z,7.50
2019-03-31T16:54:09.256Z,12.30
2019-03-31T16:56:39.330Z,5.47
2019-03-31T16:59:09.331Z,12.80
2019-03-31T17:01:39.354Z,7.70
2019-03-31T17:04:09.467Z,7.73
2019-03-31T17:06:39.618Z,8.80
2019-03-31T17:09:09.555Z,11.80
2019-03-31T17:11:39.519Z,7.83
2019-03-31T17:14:09.423Z,9.13
2019-03-31T17:16:39.279Z,10.20
2019-03-31T17:19:09.382Z,7.80
2019-03-31T17:21:39.310Z,7.87
2019-03-31T17:24:09.538Z,9.10
2019-03-31T17:26:39.505Z,9.40
2019-03-31T17:29:09.488Z,9.63
2019-03-31T17:31:39.459Z,6.57
2019-03-31T17:34:10.210Z,9.17
2019-03-31T17:36:40.560Z,8.23
2019-03-31T17:39:10.865Z,12.37
2019-03-31T17:41:40.896Z,11.03
2019-03-31T17:44:10.867Z,8.13
2019-03-31T17:46:41.173Z,12.20
2019-03-31T17:49:11.454Z,17.00
2019-03-31T17:51:41.563Z,11.93
2019-03-31T17:54:11.687Z,9.43
2019-03-31T17:56:41.564Z,13.30
2019-03-31T17:59:11.531Z,13.83
2019-03-31T18:01:41.850Z,13.73
2019-03-31T18:04:11.850Z,9.27
2019-03-31T18:06:41.924Z,11.43
2019-03-31T18:09:12.012Z,12.30
2019-03-31T18:11:42.072Z,14.60
2019-03-31T18:14:11.973Z,12.00
2019-03-31T18:16:41.922Z,13.70
2019-03-31T18:19:12.730Z,12.00
2019-03-31T18:21:43.020Z,12.93
2019-03-31T18:24:14.969Z,9.63
2019-03-31T18:26:44.971Z,11.87
2019-03-31T18:29:17.728Z,11.13
2019-03-31T18:31:48.196Z,13.10
2019-03-31T18:34:18.501Z,13.83
2019-03-31T18:39:31.562Z,15.90
2019-03-31T18:42:03.059Z,13.63
2019-03-31T18:44:33.026Z,13.13
2019-03-31T18:47:03.578Z,12.37
2019-03-31T18:49:35.273Z,15.50
2019-03-31T18:52:05.451Z,15.40
2019-03-31T18:54:53.834Z,11.13
2019-03-31T18:57:46.997Z,15.47
2019-03-31T19:00:36.923Z,12.97
2019-03-31T19:03:28.643Z,14.60
2019-03-31T19:06:27.742Z,12.53
2019-03-31T19:09:12.535Z,24.37
2019-03-31T19:12:11.644Z,14.63
2019-03-31T19:15:13.212Z,11.33
2019-03-31T19:18:08.669Z,12.70
2019-03-31T19:21:10.688Z,12.20
2019-03-31T19:23:50.553Z,11.90
2019-03-31T19:26:48.647Z,12.30
2019-03-31T19:29:23.873Z,12.90
2019-03-31T19:32:14.160Z,19.90
2019-03-31T19:35:05.602Z,12.03
2019-03-31T19:37:53.864Z,17.27
2019-03-31T19:41:04.214Z,14.03
2019-03-31T19:43:55.720Z,20.43
2019-03-31T19:46:48.664Z,12.82
2019-03-31T19:49:38.506Z,18.70
2019-03-31T19:52:27.988Z,12.07
2019-03-31T19:55:18.871Z,17.20
2019-03-31T19:58:20.622Z,17.45
2019-03-31T20:01:01.061Z,15.25
2019-03-31T20:03:44.638Z,14.80
2019-03-31T20:06:54.940Z,30.68
2019-03-31T20:09:37.171Z,23.55
2019-03-31T20:13:24.599Z,17.65
2019-03-31T20:16:08.666Z,18.52
2019-03-31T20:18:46.554Z,16.65
2019-03-31T20:21:32.185Z,20.50
2019-03-31T20:24:12.496Z,15.98
2019-03-31T20:26:54.033Z,19.87
2019-03-31T20:29:37.671Z,15.63
2019-03-31T20:32:29.861Z,16.27
2019-03-31T20:35:18.237Z,20.77
2019-03-31T20:38:06.401Z,14.65
2019-03-31T20:41:11.159Z,20.27
2019-03-31T20:43:54.247Z,17.92
2019-03-31T20:46:29.221Z,19.62
2019-03-31T20:48:59.154Z,20.23
2019-03-31T20:51:29.451Z,33.20
2019-03-31T20:54:00.380Z,24.80
2019-03-31T20:56:30.638Z,22.13
2019-03-31T20:59:00.614Z,26.05
2019-03-31T21:01:30.564Z,24.98
2019-03-31T21:04:03.073Z,22.77
2019-03-31T21:06:33.428Z,24.30
2019-03-31T21:09:05.432Z,29.77
2019-03-31T21:11:37.203Z,27.07
2019-03-31T21:14:07.422Z,29.50
2019-03-31T21:16:37.655Z,31.52
2019-03-31T21:19:08.159Z,28.83
2019-03-31T21:21:41.591Z,24.47
2019-03-31T21:24:11.561Z,28.12
2019-03-31T21:26:41.556Z,25.48
2019-03-31T21:29:11.926Z,25.02
2019-03-31T21:31:42.098Z,32.78
2019-03-31T21:34:12.801Z,27.65
2019-03-31T21:36:43.571Z,26.00
2019-03-31T21:39:13.739Z,35.75
2019-03-31T21:41:43.899Z,30.97
2019-03-31T21:44:16.311Z,30.15
2019-03-31T21:46:46.393Z,26.25
2019-03-31T21:49:16.535Z,29.50
2019-03-31T21:51:46.982Z,32.53
2019-03-31T21:54:17.139Z,29.87
2019-03-31T21:56:47.252Z,30.25
2019-03-31T21:59:22.548Z,34.23
2019-03-31T22:01:55.614Z,36.63
2019-03-31T22:04:33.364Z,37.93
2019-03-31T22:07:04.645Z,36.40
2019-03-31T22:09:36.009Z,31.97
2019-03-31T22:12:05.992Z,38.33
2019-03-31T22:14:36.209Z,37.65
2019-03-31T22:17:06.508Z,38.28
2019-03-31T22:19:41.146Z,36.40
2019-03-31T22:22:11.499Z,38.58
2019-03-31T22:24:41.782Z,39.30
2019-03-31T22:27:14.009Z,40.73
2019-03-31T22:29:44.583Z,35.13
2019-03-31T22:32:19.773Z,40.00
2019-03-31T22:34:49.992Z,51.40
2019-03-31T22:37:20.658Z,46.55
2019-03-31T22:39:50.903Z,43.00
2019-03-31T22:42:20.929Z,51.10
2019-03-31T22:44:52.305Z,48.75
2019-03-31T22:47:22.818Z,47.20
2019-03-31T22:49:53.545Z,55.60
2019-03-31T22:52:23.555Z,48.85
2019-03-31T22:54:53.526Z,53.25
2019-03-31T22:57:24.278Z,60.43
2019-03-31T22:59:54.896Z,61.23
2019-03-31T23:02:28.140Z,55.00
2019-03-31T23:04:58.557Z,52.85
2019-03-31T23:07:28.905Z,56.98
2019-03-31T23:09:59.425Z,62.30
2019-03-31T23:12:29.762Z,59.38
2019-03-31T23:15:00.873Z,52.25
2019-03-31T23:17:30.672Z,55.23
2019-03-31T23:20:00.522Z,60.88
2019-03-31T23:22:32.693Z,58.38
2019-03-31T23:25:02.508Z,46.08
2019-03-31T23:27:32.412Z,58.28
2019-03-31T23:30:04.476Z,62.62
2019-03-31T23:32:34.476Z,63.70
2019-03-31T23:35:05.156Z,61.98
2019-03-31T23:37:35.114Z,66.50
2019-03-31T23:40:05.670Z,62.88
2019-03-31T23:42:35.689Z,65.47
2019-03-31T23:45:05.896Z,58.23
2019-03-31T23:47:35.904Z,73.28
2019-03-31T23:50:06.147Z,68.33
2019-03-31T23:52:36.354Z,70.35
2019-03-31T23:55:06.236Z,72.15
2019-03-31T23:57:39.617Z,68.07
